createdAt,value
2023-01-17T00:01:34.176Z,92060.25
2023-01-17T00:04:20.137Z,92043.44
2023-01-17T00:07:05.504Z,92052.91
2023-01-17T00:09:50.429Z,92070.84
2023-01-17T00:12:17.044Z,92063.06
2023-01-17T00:14:43.669Z,92064.75
2023-01-17T00:17:10.302Z,92066.72
2023-01-17T00:19:55.634Z,92074.72
2023-01-17T00:22:44.954Z,92048.66
2023-01-17T00:25:35.797Z,92058.78
2023-01-17T00:28:02.669Z,92058.31
2023-01-17T00:30:29.335Z,92054.94
2023-01-17T00:32:55.936Z,92065.47
2023-01-17T00:35:24.217Z,92066.66
2023-01-17T00:38:07.335Z,92055.72
2023-01-17T00:40:35.329Z,92077.19
2023-01-17T00:43:21.353Z,92075.44
2023-01-17T00:46:07.237Z,92075.94
2023-01-17T00:48:52.914Z,92075.69
2023-01-17T00:51:38.999Z,92074.53
2023-01-17T00:54:24.826Z,92087.84
2023-01-17T00:57:10.483Z,92085.31
2023-01-17T00:59:56.291Z,92088.19
2023-01-17T01:02:41.899Z,92092.41
2023-01-17T01:05:27.971Z,92094.44
2023-01-17T01:08:13.218Z,92098.78
2023-01-17T01:10:58.930Z,92102.06
2023-01-17T01:13:45.373Z,92102.47
2023-01-17T01:16:31.689Z,92102.50
2023-01-17T01:19:17.337Z,92105.09
2023-01-17T01:22:03.057Z,92098.81
2023-01-17T01:24:48.767Z,92099.00
2023-01-17T01:27:34.426Z,92090.22
2023-01-17T01:30:19.589Z,92087.69
2023-01-17T01:33:04.791Z,92069.75
2023-01-17T01:35:31.522Z,92077.19
2023-01-17T01:37:58.200Z,92079.88
2023-01-17T01:40:24.906Z,92065.75
2023-01-17T01:42:57.591Z,92071.59
2023-01-17T01:45:26.924Z,92080.31
2023-01-17T01:48:36.776Z,92087.44
2023-01-17T01:51:08.662Z,92094.09
2023-01-17T01:53:38.308Z,92093.94
2023-01-17T01:56:10.876Z,92093.44
2023-01-17T01:58:38.986Z,92093.34
2023-01-17T02:01:08.471Z,92089.97
2023-01-17T02:03:37.932Z,92078.38
2023-01-17T02:06:19.137Z,92094.72
2023-01-17T02:08:45.975Z,92092.72
2023-01-17T02:11:13.065Z,92088.19
2023-01-17T02:13:40.926Z,92070.94
2023-01-17T02:16:48.931Z,92077.25
2023-01-17T02:19:38.333Z,92081.81
2023-01-17T02:22:20.142Z,92068.78
2023-01-17T02:25:01.813Z,92066.88
2023-01-17T02:27:34.344Z,92059.81
2023-01-17T02:30:16.075Z,92053.47
2023-01-17T02:33:00.937Z,92054.97
2023-01-17T02:35:48.834Z,92062.00
2023-01-17T02:38:38.250Z,92053.03
2023-01-17T02:41:18.144Z,92053.47
2023-01-17T02:43:44.812Z,92058.22
2023-01-17T02:46:11.427Z,92048.31
2023-01-17T02:48:38.926Z,92051.56
2023-01-17T02:51:20.677Z,92052.03
2023-01-17T02:53:59.732Z,92050.91
2023-01-17T02:56:35.482Z,92056.94
2023-01-17T02:59:17.428Z,92052.81
2023-01-17T03:02:07.239Z,92053.78
2023-01-17T03:04:42.756Z,92059.88
2023-01-17T03:07:17.535Z,92058.31
2023-01-17T03:09:46.603Z,92058.00
2023-01-17T03:12:14.319Z,92058.66
2023-01-17T03:14:40.926Z,92054.97
2023-01-17T03:17:07.549Z,92057.31
2023-01-17T03:19:34.156Z,92066.03
2023-01-17T03:22:00.718Z,92060.59
2023-01-17T03:24:27.254Z,92067.81
2023-01-17T03:26:54.233Z,92052.22
2023-01-17T03:29:20.761Z,92071.81
2023-01-17T03:31:47.344Z,92071.81
2023-01-17T03:34:14.004Z,92066.97
2023-01-17T03:36:40.525Z,92062.94
2023-01-17T03:39:07.158Z,92075.13
2023-01-17T03:41:33.706Z,92070.22
2023-01-17T03:44:00.897Z,92064.44
2023-01-17T03:46:28.765Z,92064.88
2023-01-17T03:48:55.350Z,92073.19
2023-01-17T03:51:21.968Z,92065.78
2023-01-17T03:53:48.544Z,92066.03
2023-01-17T03:56:15.274Z,92067.31
2023-01-17T03:58:42.184Z,92068.78
2023-01-17T04:01:09.234Z,92069.22
2023-01-17T04:03:35.841Z,92069.69
2023-01-17T04:06:02.540Z,92068.50
2023-01-17T04:08:29.462Z,92078.56
2023-01-17T04:10:56.479Z,92083.25
2023-01-17T04:13:26.097Z,92087.03
2023-01-17T04:15:52.830Z,92082.84
2023-01-17T04:18:21.065Z,92080.94
2023-01-17T04:20:47.696Z,92067.03
2023-01-17T04:23:14.221Z,92067.16
2023-01-17T04:25:40.759Z,92065.56
2023-01-17T04:28:07.377Z,92071.81
2023-01-17T04:30:34.033Z,92061.38
2023-01-17T04:33:00.685Z,92062.53
2023-01-17T04:35:30.119Z,92066.50
2023-01-17T04:37:56.675Z,92064.13
2023-01-17T04:40:23.903Z,92057.28
2023-01-17T04:42:51.458Z,92064.56
2023-01-17T04:45:18.182Z,92061.97
2023-01-17T04:47:44.755Z,92061.53
2023-01-17T04:50:11.429Z,92061.72
2023-01-17T04:52:38.067Z,92064.66
2023-01-17T04:55:05.557Z,92064.53
2023-01-17T04:57:32.129Z,92068.50
2023-01-17T04:59:58.882Z,92075.06
2023-01-17T05:02:25.429Z,92074.13
2023-01-17T05:04:52.234Z,92080.88
2023-01-17T05:07:18.809Z,92073.84
2023-01-17T05:09:45.344Z,92077.00
2023-01-17T05:12:11.910Z,92074.63
2023-01-17T05:14:38.425Z,92077.41
2023-01-17T05:17:04.997Z,92073.47
2023-01-17T05:19:31.641Z,92089.16
2023-01-17T05:22:04.149Z,92089.13
2023-01-17T05:24:32.366Z,92090.03
2023-01-17T05:27:02.935Z,92094.25
2023-01-17T05:29:30.862Z,92100.34
2023-01-17T05:31:57.770Z,92099.41
2023-01-17T05:34:24.772Z,92096.38
2023-01-17T05:36:51.540Z,92101.31
2023-01-17T05:39:18.334Z,92099.78
2023-01-17T05:41:44.952Z,92099.50
2023-01-17T05:44:11.595Z,92099.97
2023-01-17T05:46:38.517Z,92093.38
2023-01-17T05:49:05.395Z,92093.38
2023-01-17T05:51:31.942Z,92086.81
2023-01-17T05:53:58.513Z,92077.16
2023-01-17T05:56:25.110Z,92078.84
2023-01-17T05:58:51.670Z,92077.66
2023-01-17T06:01:19.507Z,92081.88
2023-01-17T06:03:46.303Z,92079.06
2023-01-17T06:06:13.150Z,92082.38
2023-01-17T06:08:41.667Z,92080.50
2023-01-17T06:11:08.270Z,92088.25
2023-01-17T06:13:34.915Z,92086.19
2023-01-17T06:16:03.973Z,92086.44
2023-01-17T06:18:31.703Z,92081.25
2023-01-17T06:20:58.407Z,92077.75
2023-01-17T06:23:25.320Z,92085.97
2023-01-17T06:25:52.238Z,92078.72
2023-01-17T06:28:21.810Z,92075.19
2023-01-17T06:30:48.897Z,92073.09
2023-01-17T06:33:15.879Z,92079.94
2023-01-17T06:35:52.757Z,92077.84
2023-01-17T06:38:19.654Z,92072.91
2023-01-17T06:40:46.254Z,92067.50
2023-01-17T06:43:12.796Z,92062.84
2023-01-17T06:45:39.408Z,92055.56
2023-01-17T06:48:06.271Z,92064.28
2023-01-17T06:50:33.545Z,92060.28
2023-01-17T06:53:02.765Z,92059.81
2023-01-17T06:55:31.070Z,92056.81
2023-01-17T06:57:59.561Z,92060.31
2023-01-17T07:00:30.781Z,92059.16
2023-01-17T07:02:57.504Z,92064.56
2023-01-17T07:05:24.132Z,92065.75
2023-01-17T07:07:50.732Z,92069.28
2023-01-17T07:10:17.409Z,92069.56
2023-01-17T07:12:44.006Z,92069.34
2023-01-17T07:15:11.190Z,92061.38
2023-01-17T07:17:37.842Z,92060.63
2023-01-17T07:20:05.200Z,92062.28
2023-01-17T07:22:31.940Z,92050.13
2023-01-17T07:24:58.810Z,92039.31
2023-01-17T07:27:27.915Z,92042.38
2023-01-17T07:29:54.539Z,92038.59
2023-01-17T07:32:21.217Z,92039.09
2023-01-17T07:34:47.812Z,92035.34
2023-01-17T07:37:15.419Z,92037.94
2023-01-17T07:39:42.172Z,92032.31
2023-01-17T07:42:09.302Z,92026.94
2023-01-17T07:44:36.073Z,92020.38
2023-01-17T07:47:04.255Z,92017.78
2023-01-17T07:49:30.914Z,92022.50
2023-01-17T07:51:57.507Z,92023.66
2023-01-17T07:54:24.134Z,92021.06
2023-01-17T07:56:50.675Z,92018.50
2023-01-17T07:59:18.255Z,92007.94
2023-01-17T08:01:45.041Z,92003.00
2023-01-17T08:04:11.808Z,92011.69
2023-01-17T08:06:42.375Z,92019.91
2023-01-17T08:09:09.227Z,92027.41
2023-01-17T08:11:35.967Z,92026.69
2023-01-17T08:14:02.540Z,92025.03
2023-01-17T08:16:29.757Z,92025.28
2023-01-17T08:18:57.227Z,92025.28
2023-01-17T08:21:24.412Z,92023.63
2023-01-17T08:23:52.354Z,92029.28
2023-01-17T08:26:23.731Z,92024.56
2023-01-17T08:29:00.401Z,92016.38
2023-01-17T08:31:28.795Z,92022.44
2023-01-17T08:33:58.489Z,92015.63
2023-01-17T08:36:28.863Z,92024.31
2023-01-17T08:38:55.708Z,92023.34
2023-01-17T08:41:24.040Z,92017.47
2023-01-17T08:43:52.137Z,92016.56
2023-01-17T08:46:19.009Z,92003.41
2023-01-17T08:48:46.184Z,92001.25
2023-01-17T08:51:13.212Z,92006.19
2023-01-17T08:53:40.736Z,92009.19
2023-01-17T08:56:07.781Z,92003.56
2023-01-17T08:58:35.885Z,92009.63
2023-01-17T09:01:05.202Z,92009.63
2023-01-17T09:03:33.916Z,92012.44
2023-01-17T09:06:11.979Z,92009.59
2023-01-17T09:08:39.412Z,92003.72
2023-01-17T09:11:14.454Z,92000.69
2023-01-17T09:13:41.743Z,92012.16
2023-01-17T09:16:09.347Z,92012.38
2023-01-17T09:18:37.061Z,92002.00
2023-01-17T09:21:12.005Z,92001.53
2023-01-17T09:23:38.684Z,92002.69
2023-01-17T09:26:05.413Z,91985.72
2023-01-17T09:28:39.611Z,91980.28
2023-01-17T09:31:08.261Z,91985.19
2023-01-17T09:33:34.893Z,91980.00
2023-01-17T09:36:04.311Z,91969.38
2023-01-17T09:38:32.033Z,91956.69
2023-01-17T09:40:58.767Z,91947.47
2023-01-17T09:43:40.829Z,91937.34
2023-01-17T09:46:22.484Z,91922.75
2023-01-17T09:48:55.399Z,91923.38
2023-01-17T09:51:26.605Z,91920.97
2023-01-17T09:53:53.789Z,91917.66
2023-01-17T09:56:30.345Z,91909.97
2023-01-17T09:59:35.933Z,91907.59
2023-01-17T10:02:05.431Z,91896.50
2023-01-17T10:04:52.908Z,91893.31
2023-01-17T10:07:34.638Z,91898.31
2023-01-17T10:10:19.426Z,91896.16
2023-01-17T10:12:55.517Z,91890.28
2023-01-17T10:15:42.275Z,91893.13
2023-01-17T10:18:30.730Z,91890.72
2023-01-17T10:21:10.918Z,91892.09
2023-01-17T10:24:06.532Z,91895.78
2023-01-17T10:26:34.138Z,91905.41
2023-01-17T10:29:04.301Z,91898.75
2023-01-17T10:31:43.412Z,91893.78
2023-01-17T10:34:18.620Z,91894.00
2023-01-17T10:36:49.550Z,91879.16
2023-01-17T10:39:22.972Z,91879.66
2023-01-17T10:42:00.756Z,91884.69
2023-01-17T10:44:38.761Z,91878.22
2023-01-17T10:47:23.551Z,91883.63
2023-01-17T10:49:53.805Z,91873.75
2023-01-17T10:52:45.299Z,91863.38
2023-01-17T10:55:26.850Z,91865.22
2023-01-17T10:57:54.024Z,91852.06
2023-01-17T11:00:32.638Z,91852.28
2023-01-17T11:03:01.150Z,91844.44
2023-01-17T11:05:30.532Z,91848.81
2023-01-17T11:08:06.623Z,91832.97
2023-01-17T11:10:51.062Z,91833.88
2023-01-17T11:13:29.466Z,91811.00
2023-01-17T11:16:08.799Z,91814.84
2023-01-17T11:18:39.099Z,91811.91
2023-01-17T11:21:12.239Z,91808.34
2023-01-17T11:23:42.529Z,91805.63
2023-01-17T11:26:12.607Z,91810.72
2023-01-17T11:28:41.509Z,91809.03
2023-01-17T11:31:28.314Z,91811.72
2023-01-17T11:34:14.941Z,91806.13
2023-01-17T11:36:41.825Z,91792.28
2023-01-17T11:39:17.403Z,91783.03
2023-01-17T11:41:46.287Z,91786.81
2023-01-17T11:44:33.495Z,91780.34
2023-01-17T11:47:09.746Z,91782.75
2023-01-17T11:49:36.651Z,91791.00
2023-01-17T11:52:34.328Z,91783.94
2023-01-17T11:55:00.997Z,91777.63
2023-01-17T11:57:36.119Z,91768.66
2023-01-17T12:00:37.804Z,91774.50
2023-01-17T12:03:20.743Z,91762.31
2023-01-17T12:06:02.966Z,91761.72
2023-01-17T12:08:39.143Z,91746.94
2023-01-17T12:11:17.884Z,91745.16
2023-01-17T12:14:02.647Z,91738.47
2023-01-17T12:16:48.079Z,91735.09
2023-01-17T12:19:32.997Z,91725.06
2023-01-17T12:22:05.470Z,91721.84
2023-01-17T12:25:19.627Z,91711.38
2023-01-17T12:28:01.220Z,91700.50
2023-01-17T12:30:38.148Z,91692.53
2023-01-17T12:33:09.819Z,91684.47
2023-01-17T12:35:53.154Z,91683.56
2023-01-17T12:38:32.925Z,91675.19
2023-01-17T12:41:07.264Z,91666.97
2023-01-17T12:43:37.173Z,91659.91
2023-01-17T12:46:27.190Z,91659.47
2023-01-17T12:49:29.532Z,91662.34
2023-01-17T12:52:04.428Z,91657.03
2023-01-17T12:54:36.574Z,91651.72
2023-01-17T12:57:14.821Z,91642.91
2023-01-17T13:00:04.756Z,91636.72
2023-01-17T13:02:49.952Z,91638.63
2023-01-17T13:05:29.743Z,91633.88
2023-01-17T13:08:11.307Z,91624.91
2023-01-17T13:10:51.992Z,91621.28
2023-01-17T13:13:24.036Z,91620.84
2023-01-17T13:15:55.383Z,91617.06
2023-01-17T13:18:25.998Z,91613.63
2023-01-17T13:21:10.566Z,91617.00
2023-01-17T13:23:56.466Z,91613.56
2023-01-17T13:26:44.259Z,91606.66
2023-01-17T13:29:48.418Z,91604.06
2023-01-17T13:32:36.427Z,91603.75
2023-01-17T13:35:05.917Z,91594.44
2023-01-17T13:37:49.488Z,91596.28
2023-01-17T13:40:27.411Z,91584.69
2023-01-17T13:43:03.164Z,91571.56
2023-01-17T13:45:32.664Z,91562.72
2023-01-17T13:48:20.117Z,91568.31
2023-01-17T13:50:46.852Z,91569.78
2023-01-17T13:53:33.016Z,91557.94
2023-01-17T13:56:24.598Z,91553.13
2023-01-17T13:59:02.553Z,91542.03
2023-01-17T14:01:48.907Z,91538.88
2023-01-17T14:04:15.592Z,91524.78
2023-01-17T14:06:49.068Z,91531.59
2023-01-17T14:09:18.431Z,91530.56
2023-01-17T14:12:04.823Z,91525.22
2023-01-17T14:14:40.849Z,91533.91
2023-01-17T14:17:16.723Z,91529.00
2023-01-17T14:19:46.778Z,91536.47
2023-01-17T14:22:19.565Z,91540.13
2023-01-17T14:25:17.691Z,91542.03
2023-01-17T14:27:56.880Z,91520.81
2023-01-17T14:30:36.617Z,91517.44
2023-01-17T14:33:04.729Z,91518.25
2023-01-17T14:35:38.618Z,91518.94
2023-01-17T14:38:34.593Z,91518.25
2023-01-17T14:41:09.725Z,91508.44
2023-01-17T14:43:40.782Z,91502.38
2023-01-17T14:46:22.718Z,91505.16
2023-01-17T14:48:50.748Z,91505.84
2023-01-17T14:51:21.917Z,91501.81
2023-01-17T14:53:54.480Z,91504.81
2023-01-17T14:56:21.581Z,91510.69
2023-01-17T14:58:48.383Z,91519.00
2023-01-17T15:01:18.097Z,91514.81
2023-01-17T15:03:48.559Z,91512.75
2023-01-17T15:06:19.645Z,91518.25
2023-01-17T15:08:47.113Z,91516.22
2023-01-17T15:11:21.439Z,91514.91
2023-01-17T15:13:51.271Z,91515.44
2023-01-17T15:16:19.741Z,91516.59
2023-01-17T15:18:46.388Z,91509.97
2023-01-17T15:21:17.214Z,91503.84
2023-01-17T15:23:48.131Z,91502.97
2023-01-17T15:26:17.488Z,91498.91
2023-01-17T15:28:45.157Z,91492.19
2023-01-17T15:31:16.851Z,91491.81
2023-01-17T15:33:46.973Z,91488.09
2023-01-17T15:36:16.555Z,91481.22
2023-01-17T15:38:52.138Z,91486.13
2023-01-17T15:41:22.444Z,91488.44
2023-01-17T15:43:49.066Z,91489.03
2023-01-17T15:46:25.857Z,91490.94
2023-01-17T15:48:52.507Z,91492.69
2023-01-17T15:51:34.328Z,91496.81
2023-01-17T15:54:35.812Z,91496.66
2023-01-17T15:57:12.672Z,91493.56
2023-01-17T15:59:45.942Z,91495.88
2023-01-17T16:02:31.230Z,91497.09
2023-01-17T16:04:59.326Z,91498.56
2023-01-17T16:07:35.975Z,91501.13
2023-01-17T16:10:08.119Z,91505.63
2023-01-17T16:12:34.663Z,91499.75
2023-01-17T16:15:12.231Z,91505.63
2023-01-17T16:17:42.616Z,91506.50
2023-01-17T16:20:15.992Z,91505.94
2023-01-17T16:22:43.940Z,91503.53
2023-01-17T16:25:19.563Z,91504.22
2023-01-17T16:27:46.697Z,91513.59
2023-01-17T16:30:16.132Z,91513.59
2023-01-17T16:32:46.906Z,91514.09
2023-01-17T16:35:19.144Z,91520.66
2023-01-17T16:37:49.530Z,91530.34
2023-01-17T16:40:17.191Z,91534.84
2023-01-17T16:42:44.730Z,91540.19
2023-01-17T16:45:13.000Z,91537.44
2023-01-17T16:47:41.161Z,91541.38
2023-01-17T16:50:09.311Z,91545.91
2023-01-17T16:52:35.826Z,91553.00
2023-01-17T16:55:02.727Z,91544.53
2023-01-17T16:57:29.232Z,91549.72
2023-01-17T16:59:55.819Z,91545.91
2023-01-17T17:02:23.082Z,91538.97
2023-01-17T17:04:49.744Z,91550.03
2023-01-17T17:07:16.383Z,91550.03
2023-01-17T17:09:43.068Z,91548.13
2023-01-17T17:12:09.654Z,91553.31
2023-01-17T17:14:36.250Z,91546.75
2023-01-17T17:17:02.927Z,91553.31
2023-01-17T17:19:29.627Z,91548.66
2023-01-17T17:22:00.103Z,91558.09
2023-01-17T17:24:26.769Z,91544.66
2023-01-17T17:26:53.296Z,91555.00
2023-01-17T17:29:20.070Z,91558.81
2023-01-17T17:31:47.125Z,91568.31
2023-01-17T17:34:14.841Z,91570.19
2023-01-17T17:36:41.636Z,91557.22
2023-01-17T17:39:11.681Z,91542.88
2023-01-17T17:41:41.927Z,91539.41
2023-01-17T17:44:08.844Z,91551.66
2023-01-17T17:46:37.108Z,91558.06
2023-01-17T17:49:05.862Z,91550.28
2023-01-17T17:51:37.751Z,91555.09
2023-01-17T17:54:06.878Z,91562.38
2023-01-17T17:56:34.491Z,91573.25
2023-01-17T17:59:02.392Z,91582.44
2023-01-17T18:01:29.353Z,91584.81
2023-01-17T18:03:57.733Z,91594.47
2023-01-17T18:06:24.449Z,91597.59
2023-01-17T18:08:52.199Z,91596.19
2023-01-17T18:11:22.619Z,91603.94
2023-01-17T18:13:51.048Z,91618.44
2023-01-17T18:16:22.144Z,91632.78
2023-01-17T18:18:51.044Z,91633.28
2023-01-17T18:21:26.174Z,91649.13
2023-01-17T18:23:55.580Z,91646.53
2023-01-17T18:26:24.083Z,91653.22
2023-01-17T18:28:52.190Z,91649.53
2023-01-17T18:31:21.616Z,91642.06
2023-01-17T18:33:48.210Z,91643.44
2023-01-17T18:36:14.728Z,91633.78
2023-01-17T18:38:44.385Z,91645.84
2023-01-17T18:41:13.675Z,91654.13
2023-01-17T18:43:40.681Z,91662.94
2023-01-17T18:46:08.287Z,91665.31
2023-01-17T18:48:35.202Z,91675.47
2023-01-17T18:51:06.788Z,91679.97
2023-01-17T18:53:34.650Z,91691.75
2023-01-17T18:56:03.989Z,91680.66
2023-01-17T18:58:31.979Z,91677.38
2023-01-17T19:01:20.393Z,91673.41
2023-01-17T19:03:48.699Z,91680.97
2023-01-17T19:06:18.914Z,91690.63
2023-01-17T19:08:45.843Z,91673.00
2023-01-17T19:11:12.760Z,91680.59
2023-01-17T19:13:40.516Z,91703.22
2023-01-17T19:16:11.188Z,91696.06
2023-01-17T19:18:37.888Z,91704.31
2023-01-17T19:21:10.629Z,91694.75
2023-01-17T19:23:38.168Z,91691.66
2023-01-17T19:26:06.234Z,91690.66
2023-01-17T19:28:35.439Z,91698.81
2023-01-17T19:31:04.983Z,91696.97
2023-01-17T19:33:31.626Z,91713.19
2023-01-17T19:36:00.163Z,91700.63
2023-01-17T19:38:27.865Z,91706.59
2023-01-17T19:40:55.028Z,91716.47
2023-01-17T19:43:21.874Z,91716.47
2023-01-17T19:45:59.656Z,91707.53
2023-01-17T19:48:27.023Z,91706.13
2023-01-17T19:50:54.853Z,91705.91
2023-01-17T19:53:24.635Z,91702.84
2023-01-17T19:55:51.195Z,91697.53
2023-01-17T19:58:17.773Z,91703.13
2023-01-17T20:00:50.945Z,91690.84
2023-01-17T20:03:17.576Z,91700.31
2023-01-17T20:05:46.064Z,91702.91
2023-01-17T20:08:12.636Z,91700.31
2023-01-17T20:10:39.190Z,91697.03
2023-01-17T20:13:05.800Z,91698.94
2023-01-17T20:15:34.125Z,91704.81
2023-01-17T20:18:02.211Z,91702.72
2023-01-17T20:20:32.460Z,91703.75
2023-01-17T20:23:01.238Z,91702.53
2023-01-17T20:25:28.037Z,91705.81
2023-01-17T20:27:55.079Z,91709.78
2023-01-17T20:30:24.517Z,91705.13
2023-01-17T20:32:51.293Z,91714.09
2023-01-17T20:35:18.120Z,91711.31
2023-01-17T20:37:44.669Z,91720.50
2023-01-17T20:40:12.196Z,91709.63
2023-01-17T20:42:38.791Z,91710.13
2023-01-17T20:45:07.154Z,91716.06
2023-01-17T20:47:33.663Z,91715.38
2023-01-17T20:50:03.091Z,91706.94
2023-01-17T20:52:29.838Z,91705.72
2023-01-17T20:54:56.412Z,91699.66
2023-01-17T20:57:22.956Z,91711.22
2023-01-17T20:59:49.514Z,91711.41
2023-01-17T21:02:16.228Z,91703.22
2023-01-17T21:04:42.853Z,91714.50
2023-01-17T21:07:09.398Z,91711.91
2023-01-17T21:09:35.933Z,91718.25
2023-01-17T21:12:02.641Z,91718.25
2023-01-17T21:14:29.239Z,91720.84
2023-01-17T21:16:55.843Z,91714.28
2023-01-17T21:19:22.971Z,91706.31
2023-01-17T21:21:51.086Z,91710.28
2023-01-17T21:24:19.358Z,91710.28
2023-01-17T21:26:46.753Z,91712.88
2023-01-17T21:29:16.022Z,91707.00
2023-01-17T21:31:42.989Z,91711.50
2023-01-17T21:34:11.324Z,91716.25
2023-01-17T21:36:40.395Z,91715.56
2023-01-17T21:39:10.974Z,91712.97
2023-01-17T21:41:40.232Z,91722.66
2023-01-17T21:44:11.622Z,91720.06
2023-01-17T21:46:39.862Z,91722.75
2023-01-17T21:49:10.511Z,91724.84
2023-01-17T21:51:55.486Z,91727.44
2023-01-17T21:54:47.573Z,91735.00
2023-01-17T21:57:35.362Z,91736.19
2023-01-17T22:00:02.422Z,91729.63
2023-01-17T22:02:28.962Z,91734.78
2023-01-17T22:04:56.302Z,91731.16
2023-01-17T22:07:24.709Z,91735.16
2023-01-17T22:09:51.303Z,91731.59
2023-01-17T22:12:17.819Z,91731.09
2023-01-17T22:14:44.396Z,91738.38
2023-01-17T22:17:10.959Z,91748.22
2023-01-17T22:19:37.496Z,91745.25
2023-01-17T22:22:04.061Z,91743.84
2023-01-17T22:24:30.592Z,91744.53
2023-01-17T22:26:57.284Z,91747.13
2023-01-17T22:29:23.835Z,91749.50
2023-01-17T22:31:50.367Z,91741.94
2023-01-17T22:34:18.902Z,91750.69
2023-01-17T22:36:48.860Z,91742.94
2023-01-17T22:39:15.385Z,91741.53
2023-01-17T22:41:42.015Z,91746.00
2023-01-17T22:44:08.687Z,91755.28
2023-01-17T22:46:38.348Z,91748.56
2023-01-17T22:49:08.588Z,91742.44
2023-01-17T22:51:35.632Z,91741.22
2023-01-17T22:54:02.218Z,91726.41
2023-01-17T22:56:31.927Z,91741.91
2023-01-17T22:59:00.797Z,91735.34
2023-01-17T23:01:29.567Z,91746.41
2023-01-17T23:03:58.942Z,91743.13
2023-01-17T23:06:39.300Z,91743.13
2023-01-17T23:09:11.868Z,91745.72
2023-01-17T23:11:44.677Z,91742.72
2023-01-17T23:14:21.754Z,91746.00
2023-01-17T23:17:16.075Z,91743.69
2023-01-17T23:19:47.890Z,91737.81
2023-01-17T23:22:19.158Z,91743.50
2023-01-17T23:24:45.798Z,91738.09
2023-01-17T23:27:36.792Z,91737.91
2023-01-17T23:30:06.438Z,91741.19
2023-01-17T23:32:33.314Z,91737.69
2023-01-17T23:34:59.951Z,91742.66
2023-01-17T23:37:48.083Z,91742.66
2023-01-17T23:40:15.540Z,91734.28
2023-01-17T23:43:00.643Z,91743.47
2023-01-17T23:45:27.452Z,91735.28
2023-01-17T23:47:54.199Z,91729.41
2023-01-17T23:50:20.947Z,91734.66
2023-01-17T23:52:47.499Z,91738.94
2023-01-17T23:55:14.204Z,91727.41
2023-01-17T23:57:41.344Z,91727.69
